Time;durP1;ratioP1;P1;durP2;ratioP2;P2;SDS_P1;SDS_P2;PMS_P1;PMS_P2;Temp;Humidity;BMP_temperature;BMP_pressure;BME280_temperature;BME280_humidity;BME280_pressure;Samples;Min_cycle;Max_cycle;Signal;HPM_P1;HPM_P2
2023/05/09 05:47:34;;;;;;;23.50;17.00;;;11.40;99.90;;;;;;5111877;27;20705;-78
2023/05/09 05:54:50;;;;;;;19.80;15.93;;;11.50;99.90;;;;;;5153510;27;20629;-78
2023/05/09 06:00:55;;;;;;;19.63;15.70;;;11.60;99.90;;;;;;5132261;27;20271;-78
2023/05/09 06:12:28;;;;;;;22.67;16.93;;;11.40;99.90;;;;;;5133915;27;20263;-77
2023/05/09 06:19:49;;;;;;;22.63;16.47;;;11.50;99.90;;;;;;5126152;27;20274;-78
2023/05/09 06:29:04;;;;;;;20.40;16.10;;;11.60;99.90;;;;;;5133342;27;20283;-77
2023/05/09 06:44:04;;;;;;;17.40;13.80;;;11.80;99.90;;;;;;5133268;27;20267;-77
2023/05/09 06:55:59;;;;;;;17.27;13.63;;;11.90;99.90;;;;;;5132904;27;20733;-77
2023/05/09 07:02:49;;;;;;;18.87;13.70;;;12.00;99.90;;;;;;5133308;27;20748;-77
2023/05/09 07:08:35;;;;;;;18.40;14.63;;;12.10;99.90;;;;;;5133349;27;20283;-77
2023/05/09 07:12:14;;;;;;;17.97;14.77;;;12.30;99.90;;;;;;5112861;27;20524;-77
2023/05/09 07:16:52;;;;;;;18.03;15.20;;;12.50;99.90;;;;;;5133453;27;20283;-77
2023/05/09 07:19:18;;;;;;;16.37;14.17;;;12.70;99.90;;;;;;5132708;28;20270;-78
2023/05/09 07:21:46;;;;;;;18.07;13.93;;;12.90;99.90;;;;;;5132387;27;20689;-78
2023/05/09 07:24:12;;;;;;;18.77;13.20;;;12.80;99.90;;;;;;5132553;27;20246;-77
2023/05/09 07:26:38;;;;;;;16.77;13.23;;;13.10;99.90;;;;;;5131210;28;20615;-77
2023/05/09 07:29:03;;;;;;;15.77;13.87;;;13.20;99.90;;;;;;5132647;27;20194;-77
2023/05/09 07:31:29;;;;;;;14.10;12.60;;;13.50;99.90;;;;;;5132197;27;20258;-78
2023/05/09 07:33:55;;;;;;;14.33;11.50;;;13.90;99.90;;;;;;5132633;27;20199;-78
2023/05/09 07:36:21;;;;;;;11.07;9.70;;;14.30;99.90;;;;;;5130885;28;20239;-78
2023/05/09 07:38:49;;;;;;;10.37;9.27;;;14.40;99.90;;;;;;5130545;28;20187;-77
2023/05/09 07:41:15;;;;;;;11.50;10.00;;;14.60;99.90;;;;;;5130498;28;20651;-78
2023/05/09 07:43:40;;;;;;;10.00;9.00;;;15.00;99.90;;;;;;5130820;28;20171;-77
2023/05/09 07:46:06;;;;;;;12.07;9.93;;;15.50;99.90;;;;;;5131664;27;20259;-77
2023/05/09 07:48:32;;;;;;;9.93;8.93;;;15.80;99.90;;;;;;5131672;27;20270;-78
2023/05/09 07:50:57;;;;;;;11.13;9.23;;;16.20;99.90;;;;;;5131468;27;20228;-78
2023/05/09 07:53:23;;;;;;;10.63;9.53;;;16.40;99.90;;;;;;5131673;27;20171;-77
2023/05/09 07:55:49;;;;;;;11.10;8.50;;;16.50;99.90;;;;;;5131451;27;20192;-77
2023/05/09 07:58:16;;;;;;;10.13;9.10;;;16.40;99.90;;;;;;5131604;27;20268;-77
2023/05/09 08:00:41;;;;;;;10.37;9.37;;;16.30;99.90;;;;;;5130395;28;20195;-78
2023/05/09 08:03:07;;;;;;;10.57;9.47;;;16.20;99.90;;;;;;5131369;27;20575;-77
2023/05/09 08:05:33;;;;;;;11.40;9.90;;;15.70;99.90;;;;;;5131256;27;20596;-78
2023/05/09 08:07:59;;;;;;;9.83;8.70;;;15.60;99.90;;;;;;5129755;28;20692;-77
2023/05/09 08:10:25;;;;;;;9.93;8.93;;;15.40;99.90;;;;;;5131047;27;20237;-78
2023/05/09 08:12:51;;;;;;;9.60;8.57;;;15.40;99.90;;;;;;5129746;28;20176;-77
2023/05/09 08:15:17;;;;;;;10.10;8.30;;;15.40;99.90;;;;;;5130984;27;20206;-78
2023/05/09 08:17:43;;;;;;;9.87;8.87;;;16.30;99.90;;;;;;5130731;27;20239;-77
2023/05/09 08:20:10;;;;;;;12.40;9.70;;;16.60;99.90;;;;;;5130670;27;20171;-78
2023/05/09 08:22:40;;;;;;;10.60;9.00;;;17.60;99.90;;;;;;5131183;27;20159;-78
2023/05/09 08:25:07;;;;;;;11.17;9.97;;;18.00;99.90;;;;;;5130979;27;20186;-77
2023/05/09 08:27:33;;;;;;;13.00;10.17;;;18.00;99.90;;;;;;5119958;28;20179;-78
2023/05/09 08:29:58;;;;;;;11.33;10.13;;;17.70;99.90;;;;;;5116035;28;20263;-78
2023/05/09 08:32:24;;;;;;;10.10;9.00;;;17.70;99.90;;;;;;5117676;28;20199;-78
2023/05/09 08:34:50;;;;;;;9.90;8.80;;;17.90;99.90;;;;;;5117619;28;20256;-78
2023/05/09 08:37:16;;;;;;;9.93;9.00;;;17.80;99.90;;;;;;5117408;28;20174;-78
2023/05/09 08:39:42;;;;;;;11.53;9.87;;;17.60;99.90;;;;;;5116929;28;20227;-78
2023/05/09 08:42:08;;;;;;;10.30;9.30;;;17.80;99.90;;;;;;5117285;28;20268;-78
2023/05/09 08:44:34;;;;;;;10.27;9.07;;;18.90;99.90;;;;;;5117113;28;20190;-78
2023/05/09 08:47:02;;;;;;;9.67;8.00;;;19.10;99.90;;;;;;5116050;28;20632;-78
2023/05/09 08:49:28;;;;;;;11.23;9.20;;;18.80;99.90;;;;;;5116746;28;20199;-78
2023/05/09 08:51:55;;;;;;;10.80;9.70;;;18.70;99.90;;;;;;5120126;28;20160;-78
2023/05/09 08:54:22;;;;;;;12.00;9.67;;;19.60;99.90;;;;;;5124701;28;20174;-78
2023/05/09 08:56:49;;;;;;;10.37;9.37;;;20.40;99.90;;;;;;5125636;28;20231;-78
2023/05/09 08:59:16;;;;;;;10.87;9.30;;;20.00;99.90;;;;;;5124194;27;20257;-78
2023/05/09 09:01:42;;;;;;;9.27;8.30;;;19.10;99.90;;;;;;5122124;28;20258;-78
2023/05/09 09:04:10;;;;;;;8.87;8.03;;;18.40;99.90;;;;;;5119325;28;20247;-78
2023/05/09 09:06:38;;;;;;;11.47;8.67;;;17.90;99.90;;;;;;5116593;28;20183;-77
2023/05/09 09:09:05;;;;;;;9.20;8.30;;;17.60;99.90;;;;;;5117897;28;20313;-78
2023/05/09 09:11:33;;;;;;;11.40;8.83;;;17.50;99.90;;;;;;5117120;28;20179;-78
2023/05/09 09:14:02;;;;;;;10.03;8.10;;;17.30;99.90;;;;;;5116982;28;20192;-78
2023/05/09 09:16:28;;;;;;;8.73;7.17;;;17.30;99.90;;;;;;5116933;28;20668;-78
2023/05/09 09:18:55;;;;;;;8.43;7.43;;;18.10;99.90;;;;;;5115797;28;20226;-78
2023/05/09 09:21:22;;;;;;;8.37;7.57;;;18.70;99.90;;;;;;5116940;28;20206;-77
2023/05/09 09:23:49;;;;;;;10.97;7.83;;;18.80;99.90;;;;;;5115581;28;20175;-77
2023/05/09 09:26:15;;;;;;;7.93;7.13;;;18.60;99.90;;;;;;5116744;28;20172;-78
2023/05/09 09:28:41;;;;;;;7.50;6.67;;;18.40;99.90;;;;;;5116661;28;20224;-78
2023/05/09 09:31:24;;;;;;;7.60;6.90;;;18.70;99.90;;;;;;5116497;28;20179;-78
2023/05/09 09:33:50;;;;;;;7.73;7.03;;;19.40;99.90;;;;;;5116807;28;20633;-78
2023/05/09 09:36:26;;;;;;;7.47;6.67;;;20.20;99.90;;;;;;5116971;28;20214;-78
2023/05/09 09:38:59;;;;;;;6.47;5.87;;;21.00;99.90;;;;;;5116077;28;20690;-78
2023/05/09 09:41:38;;;;;;;7.23;6.53;;;21.80;99.90;;;;;;5117210;27;20152;-78
2023/05/09 09:44:10;;;;;;;7.30;6.60;;;22.40;99.90;;;;;;5117449;28;20168;-78
2023/05/09 09:46:49;;;;;;;6.37;5.77;;;22.60;99.90;;;;;;5115708;28;20224;-78
2023/05/09 09:49:19;;;;;;;6.97;6.27;;;22.60;99.90;;;;;;5115789;28;20207;-79
2023/05/09 09:51:50;;;;;;;6.37;5.87;;;22.80;99.90;;;;;;5115976;28;20253;-78
2023/05/09 09:54:16;;;;;;;5.97;5.17;;;22.90;99.90;;;;;;5117455;28;20156;-78
2023/05/09 09:56:55;;;;;;;6.30;5.70;;;23.30;99.90;;;;;;5117327;28;20214;-79
2023/05/09 09:59:23;;;;;;;7.40;6.27;;;23.20;99.90;;;;;;5116403;28;20188;-78
2023/05/09 10:02:03;;;;;;;6.70;6.10;;;23.20;99.90;;;;;;5116838;28;20184;-78
2023/05/09 10:04:37;;;;;;;6.00;5.40;;;22.80;99.90;;;;;;5117062;28;20645;-79
2023/05/09 10:07:06;;;;;;;6.17;5.60;;;22.70;99.90;;;;;;5117789;28;20173;-79
2023/05/09 10:09:33;;;;;;;5.87;5.27;;;22.50;99.90;;;;;;5117160;28;20216;-83
2023/05/09 10:12:07;;;;;;;6.67;4.07;;;22.20;99.90;;;;;;5115798;28;20177;-79
2023/05/09 10:14:35;;;;;;;5.93;5.30;;;22.30;99.90;;;;;;5116799;28;20626;-78
2023/05/09 10:17:02;;;;;;;4.87;4.47;;;22.90;99.90;;;;;;5115525;28;20169;-77
2023/05/09 10:19:29;;;;;;;6.33;5.40;;;22.70;99.90;;;;;;5115404;28;20593;-78
2023/05/09 10:21:57;;;;;;;7.67;4.63;;;22.20;99.90;;;;;;5115175;28;20166;-77
2023/05/09 10:24:27;;;;;;;5.63;5.13;;;21.90;99.90;;;;;;5114606;28;20174;-77
2023/05/09 10:27:02;;;;;;;5.53;5.03;;;21.90;99.90;;;;;;5114859;28;20577;-77
2023/05/09 10:29:33;;;;;;;4.77;4.37;;;22.40;99.90;;;;;;5112974;28;20201;-77
2023/05/09 10:32:05;;;;;;;4.80;4.40;;;22.80;99.90;;;;;;5114450;28;20159;-77
2023/05/09 10:34:33;;;;;;;4.73;4.33;;;23.10;99.90;;;;;;5114250;28;20244;-77
2023/05/09 10:36:59;;;;;;;5.63;4.20;;;23.20;99.90;;;;;;5114321;28;20177;-77
2023/05/09 10:39:26;;;;;;;5.13;4.53;;;22.90;99.90;;;;;;5114160;28;20197;-77
2023/05/09 10:41:53;;;;;;;5.13;4.73;;;22.40;99.90;;;;;;5114873;28;20612;-77
2023/05/09 10:44:20;;;;;;;4.73;4.27;;;21.90;99.90;;;;;;5114195;28;20169;-77
2023/05/09 10:46:46;;;;;;;4.53;4.13;;;21.60;99.90;;;;;;5114242;28;20208;-78
2023/05/09 10:49:12;;;;;;;5.60;5.10;;;21.70;99.90;;;;;;5113929;28;20187;-77
2023/05/09 10:51:38;;;;;;;4.70;4.30;;;21.80;99.90;;;;;;5113864;28;20170;-77
2023/05/09 10:54:26;;;;;;;4.57;4.17;;;22.20;99.90;;;;;;5112728;28;20186;-77
2023/05/09 10:56:52;;;;;;;4.93;4.53;;;22.60;99.90;;;;;;5114930;28;20182;-79
2023/05/09 10:59:38;;;;;;;4.70;4.30;;;23.20;99.90;;;;;;5116018;28;20193;-78
2023/05/09 11:02:05;;;;;;;7.83;5.00;;;23.50;99.90;;;;;;5113944;28;20168;-78
2023/05/09 11:04:32;;;;;;;5.60;4.93;;;23.80;99.90;;;;;;5115091;28;20173;-79
2023/05/09 11:06:59;;;;;;;6.40;5.47;;;23.50;99.90;;;;;;5116734;28;20188;-78
2023/05/09 11:09:32;;;;;;;5.50;5.00;;;22.50;99.90;;;;;;5114900;28;20190;-78
2023/05/09 11:12:11;;;;;;;6.10;5.60;;;22.50;99.90;;;;;;5113838;28;20177;-78
2023/05/09 11:14:43;;;;;;;5.87;5.37;;;23.00;99.90;;;;;;5116564;28;20532;-78
2023/05/09 11:17:21;;;;;;;5.30;4.80;;;24.10;99.90;;;;;;5116743;28;20631;-78
2023/05/09 11:19:47;;;;;;;5.23;4.73;;;24.20;99.90;;;;;;5114717;28;20204;-78
2023/05/09 11:22:26;;;;;;;6.27;5.13;;;24.20;99.90;;;;;;5116116;28;20167;-78
2023/05/09 11:25:01;;;;;;;6.50;5.90;;;23.90;99.90;;;;;;5114436;28;20184;-78
2023/05/09 11:27:28;;;;;;;6.20;5.27;;;22.60;99.90;;;;;;5116380;28;20208;-80
2023/05/09 11:29:57;;;;;;;5.77;5.27;;;23.10;99.90;;;;;;5114730;28;20217;-79
2023/05/09 11:32:39;;;;;;;6.63;5.97;;;23.80;99.90;;;;;;5117029;28;20172;-82
2023/05/09 11:35:09;;;;;;;5.30;4.80;;;25.00;99.90;;;;;;5114737;28;20197;-79
2023/05/09 11:37:49;;;;;;;3.97;3.60;;;24.90;99.90;;;;;;5116917;28;20253;-78
2023/05/09 11:40:17;;;;;;;4.80;3.83;;;24.30;99.90;;;;;;5116141;28;20157;-79
2023/05/09 11:42:44;;;;;;;4.47;3.80;;;24.40;99.90;;;;;;5115704;28;20166;-76
2023/05/09 11:45:12;;;;;;;5.40;4.90;;;23.60;99.90;;;;;;5113950;28;20198;-76
2023/05/09 11:47:38;;;;;;;6.20;5.10;;;23.00;99.90;;;;;;5112201;28;20181;-76
2023/05/09 11:50:11;;;;;;;5.47;4.37;;;22.40;99.90;;;;;;5113877;28;20178;-76
2023/05/09 11:52:37;;;;;;;4.23;3.40;;;21.60;99.90;;;;;;5114038;28;20162;-76
2023/05/09 11:55:07;;;;;;;4.87;4.00;;;20.80;99.90;;;;;;5113923;28;20194;-76
2023/05/09 11:57:35;;;;;;;4.90;4.50;;;20.60;99.90;;;;;;5112053;28;20176;-75
2023/05/09 12:00:03;;;;;;;4.60;4.13;;;21.10;99.90;;;;;;5113333;28;20631;-75
2023/05/09 12:02:29;;;;;;;6.10;3.90;;;21.70;99.90;;;;;;5115199;28;20172;-76
2023/05/09 12:04:55;;;;;;;4.57;4.17;;;23.40;99.90;;;;;;5117222;28;20527;-75
2023/05/09 12:07:20;;;;;;;6.37;3.40;;;24.30;99.90;;;;;;5117798;28;20178;-75
2023/05/09 12:09:48;;;;;;;5.07;4.57;;;25.30;99.90;;;;;;5117469;28;20194;-75
2023/05/09 12:12:16;;;;;;;3.80;3.50;;;26.30;99.90;;;;;;5117492;27;20652;-75
2023/05/09 12:14:42;;;;;;;4.00;3.60;;;26.00;99.90;;;;;;5117160;28;20226;-76
2023/05/09 12:17:08;;;;;;;3.10;2.90;;;26.00;99.90;;;;;;5115554;28;20177;-75
2023/05/09 12:19:35;;;;;;;2.27;2.07;;;24.90;99.90;;;;;;5116821;28;20244;-76
2023/05/09 12:22:04;;;;;;;3.00;2.40;;;24.00;99.90;;;;;;5117007;28;20160;-76
2023/05/09 12:24:30;;;;;;;4.00;2.43;;;23.90;99.90;;;;;;5117299;28;20173;-75
2023/05/09 12:26:57;;;;;;;4.07;2.30;;;24.30;99.90;;;;;;5117280;28;20234;-76
2023/05/09 12:29:24;;;;;;;3.60;3.30;;;23.90;99.90;;;;;;5117076;28;20275;-75
2023/05/09 12:31:52;;;;;;;5.20;3.10;;;23.40;99.90;;;;;;5116724;28;20208;-74
2023/05/09 12:34:18;;;;;;;2.77;2.53;;;22.70;99.90;;;;;;5116764;28;20253;-75
2023/05/09 12:36:49;;;;;;;2.57;2.37;;;22.10;99.90;;;;;;5115343;28;20345;-75
2023/05/09 12:39:21;;;;;;;2.13;1.60;;;21.90;99.90;;;;;;5115139;28;20598;-75
2023/05/09 12:41:50;;;;;;;2.80;1.60;;;22.00;99.90;;;;;;5116455;28;20633;-76
2023/05/09 12:44:26;;;;;;;3.10;2.00;;;22.10;99.90;;;;;;5116348;28;20178;-76
2023/05/09 12:47:01;;;;;;;2.73;2.53;;;23.50;99.90;;;;;;5116431;27;20719;-76
2023/05/09 12:49:28;;;;;;;7.07;3.23;;;23.40;99.90;;;;;;5116219;28;20234;-75
2023/05/09 12:51:56;;;;;;;2.83;2.63;;;23.50;99.90;;;;;;5116498;28;20223;-76
2023/05/09 12:54:24;;;;;;;2.33;2.13;;;23.80;99.90;;;;;;5116097;28;20648;-76
2023/05/09 12:56:57;;;;;;;4.23;1.40;;;23.90;99.90;;;;;;5114738;28;20212;-76
2023/05/09 12:59:26;;;;;;;1.83;1.50;;;24.20;99.90;;;;;;5115055;28;20668;-76
2023/05/09 13:01:57;;;;;;;3.33;1.70;;;23.80;99.90;;;;;;5114676;28;20198;-76
2023/05/09 13:04:24;;;;;;;3.10;1.60;;;23.50;99.90;;;;;;5116118;28;20621;-76
2023/05/09 13:06:56;;;;;;;1.70;1.37;;;23.00;99.90;;;;;;5116353;28;20176;-76
2023/05/09 13:09:23;;;;;;;2.10;1.73;;;22.80;99.90;;;;;;5115949;28;20285;-75
2023/05/09 13:11:49;;;;;;;1.43;1.33;;;23.20;99.90;;;;;;5115888;28;20169;-76
2023/05/09 13:14:16;;;;;;;1.30;1.20;;;24.90;99.90;;;;;;5115820;28;20168;-76
2023/05/09 13:16:43;;;;;;;2.10;1.30;;;25.20;99.90;;;;;;5115880;28;20602;-76
2023/05/09 13:19:08;;;;;;;1.50;1.40;;;25.90;99.90;;;;;;5115769;28;20190;-76
2023/05/09 13:21:35;;;;;;;2.37;1.50;;;25.00;99.90;;;;;;5116113;28;20171;-78
2023/05/09 13:24:02;;;;;;;2.00;1.80;;;24.70;99.90;;;;;;5118712;27;20180;-79
2023/05/09 13:26:28;;;;;;;2.13;1.93;;;25.40;99.90;;;;;;5118907;28;20255;-79
2023/05/09 13:28:54;;;;;;;3.03;1.80;;;25.90;99.90;;;;;;5118311;28;20194;-80
2023/05/09 13:31:21;;;;;;;1.80;1.70;;;24.60;99.90;;;;;;5117330;28;20178;-81
2023/05/09 13:33:47;;;;;;;2.20;1.83;;;23.40;99.90;;;;;;5117018;28;20179;-80
2023/05/09 13:36:13;;;;;;;2.23;2.03;;;22.60;99.90;;;;;;5118621;28;20222;-80
2023/05/09 13:38:39;;;;;;;2.07;1.77;;;22.20;99.90;;;;;;5118785;28;20199;-79
2023/05/09 13:41:08;;;;;;;2.00;1.80;;;21.80;99.90;;;;;;5123372;28;20262;-79
2023/05/09 13:43:35;;;;;;;2.53;1.70;;;21.50;99.90;;;;;;5117032;28;20172;-80
2023/05/09 13:46:02;;;;;;;2.00;1.70;;;21.20;99.90;;;;;;5117065;28;20174;-80
2023/05/09 13:48:27;;;;;;;2.30;1.87;;;21.10;99.90;;;;;;5117273;28;20196;-79
2023/05/09 13:50:53;;;;;;;1.60;1.50;;;21.50;99.90;;;;;;5118619;28;20181;-79
2023/05/09 13:53:19;;;;;;;1.80;1.70;;;22.30;99.90;;;;;;5117204;28;20241;-79
2023/05/09 13:55:45;;;;;;;1.60;1.50;;;23.10;99.90;;;;;;5117402;28;20688;-79
2023/05/09 13:58:11;;;;;;;1.80;1.70;;;23.50;99.90;;;;;;5117520;28;20652;-79
2023/05/09 14:00:37;;;;;;;1.73;1.63;;;23.70;99.90;;;;;;5116290;28;20226;-79
2023/05/09 14:03:03;;;;;;;1.50;1.40;;;23.80;99.90;;;;;;5116192;28;20176;-79
2023/05/09 14:05:31;;;;;;;1.60;1.33;;;23.70;99.90;;;;;;5117213;28;20177;-79
2023/05/09 14:07:57;;;;;;;2.07;1.37;;;23.40;99.90;;;;;;5117563;28;20230;-79
2023/05/09 14:10:24;;;;;;;1.70;1.50;;;22.90;99.90;;;;;;5115968;28;20233;-79
2023/05/09 14:12:51;;;;;;;3.07;1.27;;;22.90;99.90;;;;;;5116047;28;20259;-80
2023/05/09 14:15:17;;;;;;;1.70;1.60;;;23.40;99.90;;;;;;5115370;28;20715;-79
2023/05/09 14:17:43;;;;;;;1.40;1.30;;;23.90;99.90;;;;;;5116985;28;20160;-79
2023/05/09 14:20:09;;;;;;;1.80;1.40;;;24.50;99.90;;;;;;5116776;28;20244;-79
2023/05/09 14:22:35;;;;;;;2.27;1.37;;;25.20;99.90;;;;;;5115628;28;20208;-79
2023/05/09 14:25:01;;;;;;;2.33;1.20;;;25.70;98.70;;;;;;5115643;28;20178;-79
2023/05/09 14:27:27;;;;;;;1.27;1.10;;;25.80;99.10;;;;;;5116110;28;20171;-79
2023/05/09 14:29:55;;;;;;;2.33;1.20;;;26.00;98.10;;;;;;5116982;28;20178;-80
2023/05/09 14:32:20;;;;;;;1.70;1.30;;;26.00;95.60;;;;;;5115514;28;20183;-80
2023/05/09 14:34:48;;;;;;;2.17;1.07;;;25.50;95.20;;;;;;5115300;28;20181;-80
2023/05/09 14:37:14;;;;;;;1.27;1.10;;;25.10;96.20;;;;;;5116888;28;20169;-79
2023/05/09 14:39:44;;;;;;;1.53;0.93;;;24.90;96.90;;;;;;5116505;28;20614;-79
2023/05/09 14:42:10;;;;;;;1.30;1.20;;;24.90;95.90;;;;;;5115627;28;20701;-80
2023/05/09 14:44:40;;;;;;;2.90;1.10;;;24.80;98.00;;;;;;5116973;28;20299;-80
2023/05/09 14:47:07;;;;;;;2.73;1.20;;;24.80;96.30;;;;;;5116997;28;20224;-79
2023/05/09 14:49:33;;;;;;;0.90;0.90;;;24.50;98.80;;;;;;5115952;28;20610;-79
2023/05/09 14:51:59;;;;;;;1.20;1.10;;;24.10;96.00;;;;;;5116042;28;20207;-80
2023/05/09 14:54:24;;;;;;;0.90;0.90;;;23.80;95.60;;;;;;5117242;28;20169;-80
2023/05/09 14:56:50;;;;;;;0.80;0.80;;;23.60;95.50;;;;;;5117199;28;20285;-80
2023/05/09 14:59:16;;;;;;;1.27;0.87;;;23.40;95.90;;;;;;5116019;28;20201;-84
2023/05/09 15:01:41;;;;;;;0.77;0.77;;;23.30;96.60;;;;;;5116944;28;20168;-81
2023/05/09 15:04:08;;;;;;;2.27;1.17;;;23.00;95.90;;;;;;5116088;28;20184;-81
2023/05/09 15:06:34;;;;;;;2.97;0.90;;;22.90;95.90;;;;;;5117753;28;20190;-81
2023/05/09 15:09:00;;;;;;;0.90;0.90;;;22.70;96.50;;;;;;5116105;28;20211;-81
2023/05/09 15:11:25;;;;;;;2.40;1.00;;;22.50;98.00;;;;;;5116819;28;20254;-81
2023/05/09 15:13:52;;;;;;;1.47;0.90;;;22.50;99.50;;;;;;5116248;28;20181;-82
2023/05/09 15:16:18;;;;;;;1.03;0.93;;;22.50;99.90;;;;;;5119150;28;20639;-77
2023/05/09 15:18:44;;;;;;;1.27;1.17;;;22.40;99.90;;;;;;5113946;28;20191;-76
2023/05/09 15:21:13;;;;;;;1.40;1.10;;;22.30;99.30;;;;;;5113922;28;20164;-75
2023/05/09 15:23:39;;;;;;;1.80;0.90;;;22.30;99.00;;;;;;5115004;28;20181;-78
2023/05/09 15:26:11;;;;;;;3.23;1.03;;;22.20;99.10;;;;;;5113800;28;20179;-76
2023/05/09 15:28:38;;;;;;;2.67;0.97;;;22.10;99.90;;;;;;5113706;28;20564;-76
2023/05/09 15:31:04;;;;;;;1.93;1.00;;;22.00;98.60;;;;;;5113519;28;20182;-75
2023/05/09 15:33:30;;;;;;;1.20;1.10;;;21.80;98.70;;;;;;5114204;28;20172;-83
2023/05/09 15:35:59;;;;;;;1.20;1.10;;;21.70;99.20;;;;;;5115012;28;20259;-80
2023/05/09 15:38:26;;;;;;;1.00;0.90;;;21.60;97.60;;;;;;5120999;28;20195;-81
2023/05/09 15:40:51;;;;;;;3.43;2.50;;;21.50;98.70;;;;;;5118817;28;20175;-81
2023/05/09 15:43:17;;;;;;;2.90;2.07;;;21.50;99.10;;;;;;5121162;28;20173;-81
2023/05/09 15:45:46;;;;;;;1.40;1.30;;;21.60;99.90;;;;;;5118741;28;20272;-80
2023/05/09 15:48:12;;;;;;;2.00;1.30;;;21.80;99.60;;;;;;5118863;28;20211;-81
2023/05/09 15:50:39;;;;;;;1.83;1.37;;;21.70;99.90;;;;;;5119089;28;20179;-81
2023/05/09 15:53:05;;;;;;;1.50;1.40;;;21.60;99.90;;;;;;5120452;28;20176;-81
2023/05/09 15:55:31;;;;;;;1.97;1.40;;;21.70;99.90;;;;;;5120558;28;20195;-81
2023/05/09 15:57:57;;;;;;;1.37;1.10;;;21.80;99.50;;;;;;5119453;28;20208;-81
2023/05/09 16:00:23;;;;;;;2.27;1.40;;;22.10;99.60;;;;;;5120258;28;20169;-81
2023/05/09 16:02:49;;;;;;;1.83;1.30;;;22.20;99.90;;;;;;5121007;28;20173;-80
2023/05/09 16:05:16;;;;;;;1.40;1.20;;;22.20;99.10;;;;;;5119338;28;20185;-81
2023/05/09 16:07:44;;;;;;;2.90;1.27;;;22.10;99.70;;;;;;5121555;28;20175;-80
2023/05/09 16:10:10;;;;;;;2.50;1.03;;;21.90;98.80;;;;;;5120685;28;20625;-80
2023/05/09 16:12:36;;;;;;;1.20;1.10;;;21.50;98.80;;;;;;5119535;28;20172;-80
2023/05/09 16:15:02;;;;;;;2.47;1.27;;;21.20;99.90;;;;;;5119635;28;20220;-80
2023/05/09 16:17:28;;;;;;;2.10;1.43;;;21.10;99.90;;;;;;5120245;28;20191;-79
2023/05/09 16:19:54;;;;;;;1.27;1.13;;;20.90;99.90;;;;;;5119981;28;20167;-80
2023/05/09 16:22:20;;;;;;;2.77;1.50;;;20.70;99.90;;;;;;5118540;28;20175;-80
2023/05/09 16:24:47;;;;;;;2.07;1.90;;;20.50;99.90;;;;;;5118408;28;20172;-80
2023/05/09 16:27:13;;;;;;;1.70;1.60;;;20.30;99.90;;;;;;5118808;28;20517;-81
2023/05/09 16:29:40;;;;;;;7.13;2.00;;;20.30;99.90;;;;;;5118355;28;20282;-81
2023/05/09 16:32:07;;;;;;;2.70;2.00;;;20.10;99.90;;;;;;5119295;28;20214;-80
2023/05/09 16:34:34;;;;;;;3.83;3.10;;;19.90;99.90;;;;;;5119907;28;20198;-81
2023/05/09 16:37:00;;;;;;;2.07;1.73;;;19.80;99.90;;;;;;5119595;28;20289;-75
2023/05/09 16:39:26;;;;;;;2.17;1.97;;;19.70;99.90;;;;;;5120504;28;20195;-81
2023/05/09 16:41:56;;;;;;;2.47;1.50;;;19.60;99.90;;;;;;5119214;28;20171;-83
2023/05/09 16:44:23;;;;;;;2.90;1.70;;;19.60;99.90;;;;;;5120187;28;20255;-82
2023/05/09 16:46:49;;;;;;;2.23;2.00;;;19.60;99.90;;;;;;5120880;28;20175;-82
2023/05/09 16:49:15;;;;;;;2.90;1.60;;;19.60;99.90;;;;;;5119403;28;20197;-81
2023/05/09 16:51:41;;;;;;;2.37;1.50;;;19.50;99.90;;;;;;5117884;28;20184;-82
2023/05/09 16:54:07;;;;;;;2.27;2.00;;;19.50;99.90;;;;;;5119238;28;20179;-81
2023/05/09 16:56:33;;;;;;;1.90;1.80;;;19.50;99.90;;;;;;5120417;28;20610;-81
2023/05/09 16:58:59;;;;;;;3.00;2.00;;;19.40;99.90;;;;;;5120198;28;20204;-81
2023/05/09 17:01:25;;;;;;;3.43;2.10;;;19.40;99.90;;;;;;5120843;28;20250;-81
2023/05/09 17:03:51;;;;;;;2.70;2.10;;;19.40;99.90;;;;;;5118731;28;20179;-74
2023/05/09 17:06:17;;;;;;;2.93;2.10;;;19.30;99.90;;;;;;5115935;28;20214;-75
2023/05/09 17:08:43;;;;;;;3.17;1.97;;;19.30;99.90;;;;;;5114908;28;20201;-74
2023/05/09 17:11:09;;;;;;;2.60;1.63;;;19.20;99.90;;;;;;5115733;28;20223;-74
2023/05/09 17:13:34;;;;;;;2.80;2.10;;;19.10;99.90;;;;;;5115860;28;20235;-74
2023/05/09 17:16:00;;;;;;;4.10;2.00;;;19.10;99.90;;;;;;5114254;28;20218;-74
2023/05/09 17:18:26;;;;;;;2.10;1.90;;;19.00;99.90;;;;;;5115622;28;20189;-73
2023/05/09 17:20:52;;;;;;;2.90;1.80;;;18.90;99.90;;;;;;5115583;28;20170;-76
2023/05/09 17:23:17;;;;;;;2.30;2.10;;;18.90;99.90;;;;;;5123919;28;20174;-81
2023/05/09 17:25:43;;;;;;;3.03;2.70;;;18.80;99.90;;;;;;5127491;27;20174;-81
2023/05/09 17:28:09;;;;;;;2.57;2.37;;;18.80;99.90;;;;;;5120251;28;20228;-81
2023/05/09 17:30:34;;;;;;;2.63;2.43;;;18.70;99.90;;;;;;5120047;28;20194;-78
